createdAt,value
2022-08-23T00:00:33.438Z,99512.44
2022-08-23T00:03:36.759Z,99513.00
2022-08-23T00:06:41.745Z,99515.19
2022-08-23T00:09:44.932Z,99520.06
2022-08-23T00:12:48.251Z,99516.56
2022-08-23T00:15:51.686Z,99520.41
2022-08-23T00:18:55.001Z,99516.59
2022-08-23T00:21:59.224Z,99524.69
2022-08-23T00:25:02.154Z,99523.56
2022-08-23T00:28:05.054Z,99545.47
2022-08-23T00:31:16.846Z,99545.88
2022-08-23T00:34:21.038Z,99550.53
2022-08-23T00:37:25.951Z,99547.50
2022-08-23T00:40:28.836Z,99553.22
2022-08-23T00:43:50.786Z,99558.41
2022-08-23T00:47:13.252Z,99560.06
2022-08-23T00:50:23.991Z,99556.47
2022-08-23T00:53:30.013Z,99565.59
2022-08-23T00:56:35.041Z,99566.44
2022-08-23T00:59:38.066Z,99569.53
2022-08-23T01:02:52.188Z,99574.41
2022-08-23T01:05:58.108Z,99582.25
2022-08-23T01:09:03.494Z,99577.25
2022-08-23T01:12:08.239Z,99576.22
2022-08-23T01:15:12.416Z,99588.81
2022-08-23T01:18:17.265Z,99581.22
2022-08-23T01:21:22.880Z,99584.88
2022-08-23T01:25:06.131Z,99595.72
2022-08-23T01:27:50.734Z,99584.00
2022-08-23T01:30:53.977Z,99591.09
2022-08-23T01:33:58.943Z,99592.84
2022-08-23T01:37:02.221Z,99602.94
2022-08-23T01:40:06.878Z,99594.16
2022-08-23T01:43:10.523Z,99589.84
2022-08-23T01:46:14.804Z,99595.00
2022-08-23T01:49:18.587Z,99598.38
2022-08-23T01:52:21.480Z,99602.84
2022-08-23T01:55:26.071Z,99607.22
2022-08-23T01:58:30.358Z,99600.25
2022-08-23T02:01:33.259Z,99600.31
2022-08-23T02:04:36.094Z,99604.13
2022-08-23T02:07:38.962Z,99610.94
2022-08-23T02:10:45.170Z,99607.66
2022-08-23T02:13:48.164Z,99604.09
2022-08-23T02:17:03.681Z,99611.75
2022-08-23T02:20:08.035Z,99612.00
2022-08-23T02:23:10.807Z,99613.06
2022-08-23T02:26:15.026Z,99612.59
2022-08-23T02:29:20.063Z,99617.22
2022-08-23T02:32:27.037Z,99625.03
2022-08-23T02:35:30.201Z,99632.72
2022-08-23T02:38:34.096Z,99634.13
2022-08-23T02:41:38.955Z,99638.78
2022-08-23T02:44:41.766Z,99646.22
2022-08-23T02:47:45.249Z,99651.34
2022-08-23T02:50:48.092Z,99655.06
2022-08-23T02:53:51.019Z,99656.13
2022-08-23T02:56:55.209Z,99653.22
2022-08-23T02:59:58.220Z,99657.22
2022-08-23T03:03:01.211Z,99660.66
2022-08-23T03:06:24.979Z,99655.13
2022-08-23T03:09:27.195Z,99669.84
2022-08-23T03:12:31.394Z,99660.72
2022-08-23T03:15:34.274Z,99671.72
2022-08-23T03:18:37.517Z,99669.25
2022-08-23T03:21:40.396Z,99669.50
2022-08-23T03:24:46.739Z,99668.72
2022-08-23T03:27:51.007Z,99675.88
2022-08-23T03:30:53.888Z,99687.94
2022-08-23T03:33:56.717Z,99685.59
2022-08-23T03:36:59.544Z,99690.44
2022-08-23T03:40:02.489Z,99700.19
2022-08-23T03:43:06.873Z,99705.50
2022-08-23T03:46:09.969Z,99699.78
2022-08-23T03:49:13.015Z,99700.28
2022-08-23T03:52:15.967Z,99705.16
2022-08-23T03:55:18.901Z,99716.22
2022-08-23T03:58:23.678Z,99710.09
2022-08-23T04:01:28.729Z,99713.22
2022-08-23T04:04:31.779Z,99708.28
2022-08-23T04:07:35.723Z,99725.47
2022-08-23T04:10:39.391Z,99719.16
2022-08-23T04:13:43.760Z,99722.09
2022-08-23T04:16:46.853Z,99729.22
2022-08-23T04:19:49.647Z,99733.94
2022-08-23T04:22:53.082Z,99745.00
2022-08-23T04:25:55.907Z,99734.59
2022-08-23T04:29:00.656Z,99736.00
2022-08-23T04:32:05.562Z,99737.97
2022-08-23T04:35:10.743Z,99737.47
2022-08-23T04:38:24.016Z,99733.22
2022-08-23T04:41:45.268Z,99738.19
2022-08-23T04:44:49.456Z,99745.56
2022-08-23T04:47:52.243Z,99748.25
2022-08-23T04:50:55.018Z,99748.09
2022-08-23T04:53:57.838Z,99748.41
2022-08-23T04:57:00.708Z,99752.13
2022-08-23T05:00:06.021Z,99744.69
2022-08-23T05:03:08.843Z,99749.94
2022-08-23T05:06:11.925Z,99747.06
2022-08-23T05:09:19.885Z,99756.28
2022-08-23T05:12:23.487Z,99747.53
2022-08-23T05:15:27.690Z,99755.75
2022-08-23T05:18:30.605Z,99761.47
2022-08-23T05:21:33.454Z,99750.84
2022-08-23T05:24:36.406Z,99760.25
2022-08-23T05:27:39.341Z,99742.38
2022-08-23T05:30:43.607Z,99747.88
2022-08-23T05:33:59.263Z,99753.31
2022-08-23T05:37:02.193Z,99768.06
2022-08-23T05:40:05.805Z,99769.88
2022-08-23T05:43:08.676Z,99776.03
2022-08-23T05:46:13.974Z,99770.19
2022-08-23T05:49:17.590Z,99779.22
2022-08-23T05:52:24.147Z,99775.66
2022-08-23T05:55:34.817Z,99776.22
2022-08-23T05:58:38.082Z,99780.16
2022-08-23T06:01:42.270Z,99786.19
2022-08-23T06:04:45.113Z,99787.91
2022-08-23T06:07:48.276Z,99796.97
2022-08-23T06:11:00.141Z,99792.91
2022-08-23T06:14:04.277Z,99794.34
2022-08-23T06:17:08.823Z,99794.50
2022-08-23T06:20:12.305Z,99792.78
2022-08-23T06:23:15.198Z,99800.94
2022-08-23T06:26:19.551Z,99801.16
2022-08-23T06:29:22.517Z,99800.13
2022-08-23T06:32:26.806Z,99797.38
2022-08-23T06:35:39.342Z,99800.72
2022-08-23T06:38:45.256Z,99807.63
2022-08-23T06:41:49.248Z,99804.94
2022-08-23T06:44:52.389Z,99802.94
2022-08-23T06:48:00.040Z,99802.84
2022-08-23T06:51:03.430Z,99804.50
2022-08-23T06:54:10.873Z,99801.88
2022-08-23T06:57:15.958Z,99800.09
2022-08-23T07:00:22.151Z,99801.88
2022-08-23T07:03:26.836Z,99800.41
2022-08-23T07:06:30.480Z,99801.59
2022-08-23T07:09:33.690Z,99802.38
2022-08-23T07:12:39.491Z,99797.06
2022-08-23T07:15:42.227Z,99797.81
2022-08-23T07:18:47.035Z,99811.28
2022-08-23T07:21:50.272Z,99800.50
2022-08-23T07:24:53.133Z,99801.03
2022-08-23T07:27:56.150Z,99800.00
2022-08-23T07:31:11.319Z,99799.75
2022-08-23T07:34:18.948Z,99797.41
2022-08-23T07:37:23.404Z,99789.59
2022-08-23T07:40:27.604Z,99798.91
2022-08-23T07:43:34.201Z,99799.34
2022-08-23T07:46:40.799Z,99802.63
2022-08-23T07:49:45.003Z,99801.66
2022-08-23T07:52:47.788Z,99804.16
2022-08-23T07:55:50.760Z,99805.28
2022-08-23T07:58:53.643Z,99807.84
2022-08-23T08:01:56.807Z,99805.56
2022-08-23T08:05:03.955Z,99796.28
2022-08-23T08:08:07.664Z,99792.19
2022-08-23T08:11:15.504Z,99805.38
2022-08-23T08:14:18.674Z,99798.19
2022-08-23T08:17:26.876Z,99808.63
2022-08-23T08:20:35.260Z,99813.38
2022-08-23T08:23:37.995Z,99809.41
2022-08-23T08:26:42.128Z,99807.69
2022-08-23T08:29:45.116Z,99801.56
2022-08-23T08:32:50.783Z,99805.28
2022-08-23T08:35:59.189Z,99801.94
2022-08-23T08:39:05.760Z,99801.72
2022-08-23T08:42:17.812Z,99806.16
2022-08-23T08:45:24.252Z,99804.38
2022-08-23T08:48:31.564Z,99788.66
2022-08-23T08:51:42.998Z,99782.84
2022-08-23T08:54:48.338Z,99785.06
2022-08-23T08:57:51.481Z,99785.28
2022-08-23T09:00:56.714Z,99788.47
2022-08-23T09:03:59.746Z,99782.59
2022-08-23T09:07:11.638Z,99786.06
2022-08-23T09:10:32.913Z,99778.47
2022-08-23T09:13:59.946Z,99799.03
2022-08-23T09:17:05.621Z,99785.84
2022-08-23T09:20:09.783Z,99798.22
2022-08-23T09:23:19.028Z,99792.28
2022-08-23T09:26:25.591Z,99801.81
2022-08-23T09:29:29.333Z,99806.25
2022-08-23T09:32:35.949Z,99801.16
2022-08-23T09:35:38.770Z,99799.19
2022-08-23T09:38:51.045Z,99811.03
2022-08-23T09:41:54.370Z,99805.44
2022-08-23T09:44:57.896Z,99811.06
2022-08-23T09:48:01.219Z,99811.34
2022-08-23T09:51:06.978Z,99805.75
2022-08-23T09:54:13.947Z,99807.44
2022-08-23T09:57:24.396Z,99816.00
2022-08-23T10:00:28.759Z,99800.59
2022-08-23T10:03:32.654Z,99801.94
2022-08-23T10:06:36.349Z,99808.97
2022-08-23T10:09:40.558Z,99809.63
2022-08-23T10:12:43.465Z,99800.41
2022-08-23T10:15:52.857Z,99815.38
2022-08-23T10:19:03.351Z,99814.84
2022-08-23T10:22:12.362Z,99808.47
2022-08-23T10:25:21.856Z,99781.78
2022-08-23T10:28:47.478Z,99805.22
2022-08-23T10:32:06.838Z,99798.59
2022-08-23T10:35:20.520Z,99782.03
2022-08-23T10:38:33.060Z,99790.28
2022-08-23T10:41:44.687Z,99787.41
2022-08-23T10:44:53.023Z,99781.34
2022-08-23T10:48:08.072Z,99788.63
2022-08-23T10:51:13.396Z,99776.34
2022-08-23T10:54:18.824Z,99778.22
2022-08-23T10:57:24.773Z,99771.13
2022-08-23T11:00:30.671Z,99777.38
2022-08-23T11:03:34.955Z,99770.91
2022-08-23T11:06:46.638Z,99757.97
2022-08-23T11:09:54.672Z,99779.88
2022-08-23T11:13:03.012Z,99766.94
2022-08-23T11:16:09.150Z,99752.97
2022-08-23T11:19:18.673Z,99757.75
2022-08-23T11:22:22.610Z,99758.41
2022-08-23T11:25:40.542Z,99758.19
2022-08-23T11:28:46.337Z,99758.78
2022-08-23T11:31:52.142Z,99742.72
2022-08-23T11:35:04.687Z,99757.94
2022-08-23T11:38:10.741Z,99760.88
2022-08-23T11:41:22.198Z,99759.00
2022-08-23T11:44:28.465Z,99739.78
2022-08-23T11:47:40.692Z,99752.50
2022-08-23T11:50:54.286Z,99744.38
2022-08-23T11:54:15.830Z,99744.59
2022-08-23T11:57:29.772Z,99754.41
2022-08-23T12:00:52.715Z,99748.94
2022-08-23T12:03:57.425Z,99748.53
2022-08-23T12:07:06.803Z,99746.25
2022-08-23T12:10:10.109Z,99737.22
2022-08-23T12:13:31.989Z,99730.75
2022-08-23T12:16:37.912Z,99726.78
2022-08-23T12:19:50.368Z,99734.06
2022-08-23T12:22:58.772Z,99727.81
2022-08-23T12:26:05.946Z,99725.09
2022-08-23T12:29:13.799Z,99736.78
2022-08-23T12:32:22.248Z,99732.59
2022-08-23T12:35:34.690Z,99728.84
2022-08-23T12:38:42.820Z,99739.91
2022-08-23T12:41:52.208Z,99735.50
2022-08-23T12:45:02.856Z,99726.13
2022-08-23T12:48:08.726Z,99722.34
2022-08-23T12:51:14.481Z,99726.34
2022-08-23T12:54:18.808Z,99715.44
2022-08-23T12:57:24.855Z,99711.47
2022-08-23T13:00:31.575Z,99713.88
2022-08-23T13:03:44.619Z,99723.38
2022-08-23T13:06:49.955Z,99720.44
2022-08-23T13:09:53.450Z,99723.09
2022-08-23T13:12:57.219Z,99727.50
2022-08-23T13:16:01.563Z,99719.56
2022-08-23T13:19:15.883Z,99729.16
2022-08-23T13:22:24.046Z,99732.69
2022-08-23T13:25:31.581Z,99738.31
2022-08-23T13:28:35.645Z,99735.38
2022-08-23T13:31:52.751Z,99725.59
2022-08-23T13:35:16.973Z,99730.78
2022-08-23T13:38:24.412Z,99749.13
2022-08-23T13:41:30.047Z,99752.03
2022-08-23T13:44:33.969Z,99756.31
2022-08-23T13:47:37.885Z,99748.16
2022-08-23T13:50:43.029Z,99753.31
2022-08-23T13:53:46.538Z,99749.34
2022-08-23T13:56:51.464Z,99740.44
2022-08-23T13:59:57.864Z,99734.56
2022-08-23T14:03:01.006Z,99751.09
2022-08-23T14:06:05.303Z,99748.53
2022-08-23T14:09:08.216Z,99737.81
2022-08-23T14:12:15.220Z,99745.66
2022-08-23T14:15:18.774Z,99742.91
2022-08-23T14:18:23.157Z,99743.44
2022-08-23T14:21:28.414Z,99735.97
2022-08-23T14:24:31.312Z,99734.53
2022-08-23T14:27:34.226Z,99743.16
2022-08-23T14:30:38.429Z,99749.81
2022-08-23T14:33:41.808Z,99739.38
2022-08-23T14:40:10.104Z,99733.03
2022-08-23T14:43:13.091Z,99729.31
2022-08-23T14:46:15.935Z,99728.44
2022-08-23T14:49:20.743Z,99726.78
2022-08-23T14:52:24.996Z,99723.69
2022-08-23T14:55:27.899Z,99727.63
2022-08-23T14:58:30.847Z,99723.06
2022-08-23T15:01:33.725Z,99728.16
2022-08-23T15:04:36.680Z,99724.81
2022-08-23T15:07:40.907Z,99739.19
2022-08-23T15:12:13.030Z,99730.84
2022-08-23T15:14:06.795Z,99731.69
2022-08-23T15:17:09.615Z,99728.56
2022-08-23T15:20:12.581Z,99731.88
2022-08-23T15:23:16.756Z,99731.47
2022-08-23T15:26:22.612Z,99731.88
2022-08-23T15:29:25.475Z,99733.72
2022-08-23T15:32:28.375Z,99738.91
2022-08-23T15:35:37.352Z,99731.59
2022-08-23T15:38:44.582Z,99731.38
2022-08-23T15:41:50.457Z,99727.41
2022-08-23T15:44:55.379Z,99721.53
2022-08-23T15:48:01.209Z,99735.09
2022-08-23T15:51:05.496Z,99743.88
2022-08-23T15:54:10.276Z,99738.41
2022-08-23T15:57:15.364Z,99740.28
2022-08-23T16:00:19.407Z,99740.09
2022-08-23T16:03:23.167Z,99736.13
2022-08-23T16:06:26.286Z,99744.78
2022-08-23T16:09:31.067Z,99745.31
2022-08-23T16:12:34.291Z,99747.00
2022-08-23T16:15:39.098Z,99751.84
2022-08-23T16:18:42.270Z,99750.22
2022-08-23T16:21:46.460Z,99754.94
2022-08-23T16:24:50.837Z,99764.22
2022-08-23T16:27:55.134Z,99763.06
2022-08-23T16:30:58.019Z,99768.47
2022-08-23T16:34:02.648Z,99772.91
2022-08-23T16:37:07.161Z,99770.91
2022-08-23T16:40:12.622Z,99776.97
2022-08-23T16:43:15.472Z,99779.38
2022-08-23T16:46:21.662Z,99776.91
2022-08-23T16:49:24.730Z,99776.09
2022-08-23T16:52:34.333Z,99776.66
2022-08-23T16:55:39.914Z,99794.06
2022-08-23T16:58:43.258Z,99794.91
2022-08-23T17:01:48.101Z,99793.69
2022-08-23T17:04:52.652Z,99796.69
2022-08-23T17:07:55.948Z,99799.75
2022-08-23T17:11:03.343Z,99800.84
2022-08-23T17:14:07.499Z,99803.13
2022-08-23T17:17:10.300Z,99808.44
2022-08-23T17:20:14.857Z,99806.44
2022-08-23T17:23:18.634Z,99812.69
2022-08-23T17:26:27.310Z,99815.00
2022-08-23T17:29:32.656Z,99813.59
2022-08-23T17:32:43.908Z,99817.63
2022-08-23T17:35:47.383Z,99818.88
2022-08-23T17:38:54.896Z,99813.50
2022-08-23T17:42:00.292Z,99825.06
2022-08-23T17:45:19.983Z,99816.59
2022-08-23T17:48:25.290Z,99821.16
2022-08-23T17:51:31.386Z,99824.03
2022-08-23T17:54:34.930Z,99824.53
2022-08-23T17:57:43.107Z,99830.00
2022-08-23T18:00:51.937Z,99827.94
2022-08-23T18:03:57.339Z,99819.03
2022-08-23T18:07:00.430Z,99822.78
2022-08-23T18:10:05.852Z,99827.53
2022-08-23T18:13:14.478Z,99819.34
2022-08-23T18:16:17.777Z,99822.81
2022-08-23T18:19:21.927Z,99836.81
2022-08-23T18:22:25.459Z,99826.53
2022-08-23T18:25:32.959Z,99834.81
2022-08-23T18:28:41.756Z,99825.28
2022-08-23T18:31:46.620Z,99826.13
2022-08-23T18:34:49.650Z,99820.16
2022-08-23T18:37:56.392Z,99820.66
2022-08-23T18:41:01.218Z,99827.06
2022-08-23T18:44:06.251Z,99836.09
2022-08-23T18:47:13.264Z,99828.69
2022-08-23T18:50:17.169Z,99839.28
2022-08-23T18:53:23.403Z,99832.72
2022-08-23T18:56:26.806Z,99829.13
2022-08-23T18:59:31.359Z,99832.69
2022-08-23T19:02:39.330Z,99839.22
2022-08-23T19:05:42.851Z,99834.22
2022-08-23T19:08:46.207Z,99827.44
2022-08-23T19:11:54.083Z,99830.50
2022-08-23T19:15:05.125Z,99828.84
2022-08-23T19:18:11.577Z,99834.59
2022-08-23T19:21:19.495Z,99828.97
2022-08-23T19:24:24.416Z,99829.63
2022-08-23T19:27:35.300Z,99840.75
2022-08-23T19:30:40.547Z,99836.88
2022-08-23T19:33:45.515Z,99833.66
2022-08-23T19:37:00.316Z,99835.88
2022-08-23T19:40:07.445Z,99834.50
2022-08-23T19:43:11.188Z,99837.25
2022-08-23T19:49:36.070Z,99837.72
2022-08-23T19:52:39.395Z,99835.38
2022-08-23T19:55:45.372Z,99835.69
2022-08-23T19:58:48.237Z,99837.72
2022-08-23T20:01:52.418Z,99830.16
2022-08-23T20:04:56.922Z,99829.84
2022-08-23T20:08:00.295Z,99824.78
2022-08-23T20:11:03.375Z,99827.47
2022-08-23T20:14:06.929Z,99830.31
2022-08-23T20:17:10.260Z,99834.16
2022-08-23T20:20:14.944Z,99831.63
2022-08-23T20:23:34.873Z,99825.78
2022-08-23T20:26:39.141Z,99833.34
2022-08-23T20:29:42.610Z,99833.50
2022-08-23T20:32:45.532Z,99826.69
2022-08-23T20:35:50.600Z,99838.19
2022-08-23T20:38:58.077Z,99827.97
2022-08-23T20:42:00.965Z,99832.41
2022-08-23T20:45:03.781Z,99836.25
2022-08-23T20:48:10.831Z,99835.09
2022-08-23T20:51:16.244Z,99829.34
2022-08-23T20:54:19.504Z,99834.91
2022-08-23T20:57:22.475Z,99839.47
2022-08-23T21:00:25.710Z,99835.50
2022-08-23T21:03:30.016Z,99839.75
2022-08-23T21:06:37.607Z,99832.81
2022-08-23T21:09:40.708Z,99837.34
2022-08-23T21:12:43.474Z,99834.75
2022-08-23T21:15:46.472Z,99843.44
2022-08-23T21:18:49.784Z,99846.97
2022-08-23T21:21:54.043Z,99829.88
2022-08-23T21:24:57.534Z,99834.28
2022-08-23T21:28:04.097Z,99839.13
2022-08-23T21:31:08.318Z,99833.13
2022-08-23T21:34:11.963Z,99835.88
2022-08-23T21:37:16.231Z,99832.09
2022-08-23T21:40:19.213Z,99827.75
2022-08-23T21:43:22.063Z,99832.56
2022-08-23T21:46:24.932Z,99831.25
2022-08-23T21:49:27.838Z,99835.00
2022-08-23T21:52:32.130Z,99830.13
2022-08-23T21:55:37.040Z,99831.78
2022-08-23T21:58:40.131Z,99834.84
2022-08-23T22:01:43.368Z,99833.66
2022-08-23T22:04:46.215Z,99832.00
2022-08-23T22:07:51.973Z,99837.72
2022-08-23T22:10:58.361Z,99830.34
2022-08-23T22:14:01.214Z,99835.00
2022-08-23T22:17:04.362Z,99828.44
2022-08-23T22:20:08.753Z,99843.50
2022-08-23T22:23:12.945Z,99841.59
2022-08-23T22:26:15.748Z,99847.00
2022-08-23T22:29:18.541Z,99838.94
2022-08-23T22:32:21.318Z,99836.88
2022-08-23T22:35:24.123Z,99837.50
2022-08-23T22:38:28.507Z,99837.78
2022-08-23T22:41:31.611Z,99847.03
2022-08-23T22:44:34.667Z,99838.66
2022-08-23T22:47:37.648Z,99840.72
2022-08-23T22:50:40.380Z,99842.25
2022-08-23T22:53:46.020Z,99845.94
2022-08-23T22:56:50.676Z,99835.75
2022-08-23T22:59:53.486Z,99839.00
2022-08-23T23:02:57.929Z,99838.50
2022-08-23T23:06:00.795Z,99840.34
2022-08-23T23:09:05.585Z,99840.41
2022-08-23T23:12:08.583Z,99836.06
2022-08-23T23:15:11.837Z,99836.28
2022-08-23T23:18:14.610Z,99841.13
2022-08-23T23:21:16.467Z,99840.03
2022-08-23T23:24:22.052Z,99849.47
2022-08-23T23:27:24.903Z,99842.84
2022-08-23T23:30:28.508Z,99834.97
2022-08-23T23:33:31.349Z,99842.03
2022-08-23T23:36:34.505Z,99844.72
2022-08-23T23:39:38.750Z,99842.75
2022-08-23T23:42:43.048Z,99842.63
2022-08-23T23:45:45.924Z,99838.41
2022-08-23T23:48:49.765Z,99836.28
2022-08-23T23:51:52.820Z,99835.44
2022-08-23T23:54:56.995Z,99840.78
2022-08-23T23:57:59.834Z,99839.53
